Time;durP1;ratioP1;P1;durP2;ratioP2;P2;SDS_P1;SDS_P2;PMS_P1;PMS_P2;Temp;Humidity;BMP_temperature;BMP_pressure;BME280_temperature;BME280_humidity;BME280_pressure;Samples;Min_cycle;Max_cycle;Signal;HPM_P1;HPM_P2
2022/03/09 00:01:23;;;;;;;;;;;;;;;21.68;36.83;101328.31;7279716;19;152412;-53
2022/03/09 00:03:50;;;;;;;;;;;;;;;21.67;37.29;101321.00;7285682;19;152718;-53
2022/03/09 00:06:17;;;;;;;;;;;;;;;21.67;36.95;101321.00;7282064;19;151869;-53
2022/03/09 00:08:44;;;;;;;;;;;;;;;21.65;37.41;101326.13;7281101;19;152649;-53
2022/03/09 00:11:11;;;;;;;;;;;;;;;21.66;37.17;101322.16;7277299;19;154184;-52
2022/03/09 00:13:38;;;;;;;;;;;;;;;21.64;37.53;101332.88;7279483;19;151996;-53
2022/03/09 00:16:05;;;;;;;;;;;;;;;21.64;37.53;101326.41;7280218;19;153235;-53
2022/03/09 00:18:32;;;;;;;;;;;;;;;21.62;37.29;101325.91;7279244;19;153433;-52
2022/03/09 00:20:59;;;;;;;;;;;;;;;21.61;37.27;101325.06;7279978;19;152238;-53
2022/03/09 00:23:28;;;;;;;;;;;;;;;21.59;37.48;101329.31;7280126;19;153521;-53
2022/03/09 00:25:54;;;;;;;;;;;;;;;21.56;37.49;101329.94;7288035;19;153440;-52
2022/03/09 00:28:21;;;;;;;;;;;;;;;21.53;37.57;101331.34;7278091;19;152864;-53
2022/03/09 00:30:47;;;;;;;;;;;;;;;21.53;37.55;101331.34;7280053;19;153477;-53
2022/03/09 00:33:14;;;;;;;;;;;;;;;21.51;38.06;101324.38;7279136;19;151511;-53
2022/03/09 00:35:42;;;;;;;;;;;;;;;21.49;37.77;101324.69;7275990;19;152915;-52
2022/03/09 00:38:09;;;;;;;;;;;;;;;21.47;38.23;101328.94;7277888;19;153871;-54
2022/03/09 00:40:36;;;;;;;;;;;;;;;21.45;38.01;101332.06;7274399;19;151765;-53
2022/03/09 00:43:03;;;;;;;;;;;;;;;21.42;38.07;101320.59;7281541;19;152335;-53
2022/03/09 00:45:33;;;;;;;;;;;;;;;21.43;38.18;101325.09;7284331;19;154660;-53
2022/03/09 00:48:03;;;;;;;;;;;;;;;21.41;38.38;101324.53;7277934;19;153241;-53
2022/03/09 00:50:30;;;;;;;;;;;;;;;21.38;38.41;101320.38;7278293;19;153391;-53
2022/03/09 00:52:57;;;;;;;;;;;;;;;21.37;38.58;101320.66;7279552;19;152208;-53
2022/03/09 00:55:23;;;;;;;;;;;;;;;21.37;38.67;101326.28;7279743;19;153448;-54
2022/03/09 00:57:51;;;;;;;;;;;;;;;21.33;39.13;101317.66;7276453;19;153941;-53
2022/03/09 01:00:18;;;;;;;;;;;;;;;21.31;38.81;101317.09;7277854;19;151890;-53
2022/03/09 01:02:46;;;;;;;;;;;;;;;21.29;38.74;101316.59;7278186;19;154817;-54
2022/03/09 01:05:13;;;;;;;;;;;;;;;21.29;39.03;101319.41;7277624;19;153915;-52
2022/03/09 01:07:41;;;;;;;;;;;;;;;21.25;39.09;101323.97;7288071;19;152306;-53
2022/03/09 01:10:08;;;;;;;;;;;;;;;21.24;39.23;101316.66;7273493;19;153623;-53
2022/03/09 01:12:35;;;;;;;;;;;;;;;21.21;39.44;101318.09;7278520;19;152117;-53
2022/03/09 01:15:03;;;;;;;;;;;;;;;21.21;39.69;101322.91;7278187;19;153127;-53
2022/03/09 01:17:31;;;;;;;;;;;;;;;21.19;39.45;101319.53;7276602;19;153944;-53
2022/03/09 01:19:58;;;;;;;;;;;;;;;21.16;39.79;101311.72;7277863;19;151840;-53
2022/03/09 01:22:25;;;;;;;;;;;;;;;21.16;39.51;101318.19;7277837;19;152607;-53
2022/03/09 01:24:52;;;;;;;;;;;;;;;21.13;39.72;101315.13;7278069;19;153910;-52
2022/03/09 01:27:18;;;;;;;;;;;;;;;21.12;39.75;101322.69;7277931;19;152267;-53
2022/03/09 01:29:46;;;;;;;;;;;;;;;21.10;39.83;101324.16;7283197;19;152997;-53
2022/03/09 01:32:13;;;;;;;;;;;;;;;21.08;40.01;101315.16;7278718;19;152217;-53
2022/03/09 01:34:40;;;;;;;;;;;;;;;21.09;40.22;101312.06;7276509;19;152846;-53
2022/03/09 01:37:07;;;;;;;;;;;;;;;21.05;40.20;101310.16;7275327;19;156075;-54
2022/03/09 01:39:33;;;;;;;;;;;;;;;21.04;39.99;101314.09;7275866;19;152111;-53
2022/03/09 01:42:00;;;;;;;;;;;;;;;21.04;40.24;101308.50;7278723;19;153550;-53
2022/03/09 01:44:27;;;;;;;;;;;;;;;21.01;40.50;101307.13;7275452;19;154164;-53
2022/03/09 01:46:54;;;;;;;;;;;;;;;20.98;40.39;101306.91;7282237;19;151488;-52
2022/03/09 01:49:22;;;;;;;;;;;;;;;20.97;40.26;101299.63;7285930;19;153052;-54
2022/03/09 01:51:50;;;;;;;;;;;;;;;20.96;40.27;101306.38;7290884;19;153807;-53
2022/03/09 01:54:17;;;;;;;;;;;;;;;20.93;40.68;101299.38;7283711;19;152808;-53
2022/03/09 01:56:44;;;;;;;;;;;;;;;20.89;40.41;101300.31;7281364;19;153850;-53
2022/03/09 01:59:12;;;;;;;;;;;;;;;20.86;40.75;101305.38;7282838;19;151755;-53
2022/03/09 02:01:39;;;;;;;;;;;;;;;20.88;40.85;101307.03;7283007;19;152298;-53
2022/03/09 02:04:06;;;;;;;;;;;;;;;20.84;41.10;101310.47;7282503;19;153544;-54
2022/03/09 02:06:34;;;;;;;;;;;;;;;20.84;41.16;101310.47;7284455;19;151973;-52
2022/03/09 02:11:39;;;;;;;;;;;;;;;20.80;40.75;101309.38;7282349;19;153301;-53
2022/03/09 02:14:24;;;;;;;;;;;;;;;20.80;40.79;101311.38;7289661;19;151629;-52
2022/03/09 02:16:51;;;;;;;;;;;;;;;20.78;41.05;101314.47;7283802;19;153440;-53
2022/03/09 02:19:17;;;;;;;;;;;;;;;20.75;41.12;101312.28;7278394;19;152138;-54
2022/03/09 02:21:45;;;;;;;;;;;;;;;20.74;41.12;101312.56;7281580;19;153663;-55
2022/03/09 02:24:12;;;;;;;;;;;;;;;20.73;41.10;101308.91;7281667;19;155350;-53
2022/03/09 02:26:40;;;;;;;;;;;;;;;20.70;41.16;101315.16;7281781;19;152361;-52
2022/03/09 02:29:12;;;;;;;;;;;;;;;20.67;41.47;101315.72;7283947;19;152613;-52
2022/03/09 02:31:39;;;;;;;;;;;;;;;20.66;41.25;101316.88;7284049;19;154119;-52
2022/03/09 02:34:06;;;;;;;;;;;;;;;20.64;41.63;101307.91;7284275;19;151796;-52
2022/03/09 02:36:33;;;;;;;;;;;;;;;20.61;41.29;101305.72;7290068;19;153728;-53
2022/03/09 02:38:59;;;;;;;;;;;;;;;20.60;41.32;101312.47;7283301;19;152223;-53
2022/03/09 02:41:28;;;;;;;;;;;;;;;20.57;41.35;101310.28;7283897;19;153528;-52
2022/03/09 02:43:55;;;;;;;;;;;;;;;20.57;41.70;101303.81;7280358;19;153548;-52
2022/03/09 02:46:22;;;;;;;;;;;;;;;20.54;41.48;101310.84;7283668;19;152003;-52
2022/03/09 02:48:50;;;;;;;;;;;;;;;20.52;41.76;101307.53;7281527;19;152913;-53
2022/03/09 02:51:17;;;;;;;;;;;;;;;20.51;41.46;101305.84;7280259;19;153322;-52
2022/03/09 02:53:44;;;;;;;;;;;;;;;20.49;41.66;101305.28;7281150;19;151827;-53
2022/03/09 02:56:10;;;;;;;;;;;;;;;20.47;42.03;101310.38;7288602;19;155159;-53
2022/03/09 02:58:37;;;;;;;;;;;;;;;20.45;41.60;101307.03;7282133;19;151648;-53
2022/03/09 03:01:04;;;;;;;;;;;;;;;20.44;41.73;101308.19;7281306;19;153262;-52
2022/03/09 03:03:31;;;;;;;;;;;;;;;20.42;42.04;101304.84;7279995;19;153466;-54
2022/03/09 03:05:58;;;;;;;;;;;;;;;20.40;42.01;101307.09;7282924;19;151919;-53
2022/03/09 03:08:26;;;;;;;;;;;;;;;20.38;42.16;101304.59;7281115;19;153550;-52
2022/03/09 03:10:52;;;;;;;;;;;;;;;20.42;42.20;101310.44;7279212;19;153637;-53
2022/03/09 03:13:19;;;;;;;;;;;;;;;20.36;42.41;101315.28;7281171;19;151796;-52
2022/03/09 03:15:46;;;;;;;;;;;;;;;20.33;42.20;101313.06;7280364;19;152716;-53
2022/03/09 03:18:13;;;;;;;;;;;;;;;20.32;42.15;101311.41;7287602;19;153928;-52
2022/03/09 03:20:40;;;;;;;;;;;;;;;20.32;42.60;101310.56;7279402;19;152243;-52
2022/03/09 03:23:06;;;;;;;;;;;;;;;20.31;42.34;101314.50;7279121;19;154163;-53
2022/03/09 03:25:33;;;;;;;;;;;;;;;20.31;42.29;101298.50;7281120;19;151823;-53
2022/03/09 03:28:00;;;;;;;;;;;;;;;20.31;42.59;101306.91;7280686;19;152689;-53
2022/03/09 03:30:27;;;;;;;;;;;;;;;20.32;42.44;101310.56;7279416;19;153315;-53
2022/03/09 03:32:54;;;;;;;;;;;;;;;20.25;42.52;101304.44;7282345;19;152410;-53
2022/03/09 03:35:21;;;;;;;;;;;;;;;20.23;42.58;101296.31;7281912;19;153166;-53
2022/03/09 03:37:50;;;;;;;;;;;;;;;20.22;42.58;101293.81;7279962;19;153343;-53
2022/03/09 03:40:17;;;;;;;;;;;;;;;20.20;42.48;101290.47;7286803;19;152629;-52
2022/03/09 03:42:44;;;;;;;;;;;;;;;20.18;42.70;101287.94;7280647;19;153412;-53
2022/03/09 03:45:11;;;;;;;;;;;;;;;20.20;42.86;101284.84;7283715;19;151705;-52
2022/03/09 03:47:38;;;;;;;;;;;;;;;20.17;42.85;101272.25;7279392;19;152698;-53
2022/03/09 03:50:05;;;;;;;;;;;;;;;20.17;43.02;101271.44;7279703;19;153795;-53
2022/03/09 03:52:31;;;;;;;;;;;;;;;20.16;42.60;101278.19;7278093;19;151916;-53
2022/03/09 03:54:58;;;;;;;;;;;;;;;20.15;42.72;101268.09;7279525;19;152722;-52
2022/03/09 03:57:25;;;;;;;;;;;;;;;20.13;42.93;101253.50;7279226;19;153344;-53
2022/03/09 03:59:52;;;;;;;;;;;;;;;20.10;42.96;101256.91;7279590;19;152508;-53
2022/03/09 04:02:19;;;;;;;;;;;;;;;20.09;42.78;101261.69;7289004;19;152570;-53
2022/03/09 04:04:46;;;;;;;;;;;;;;;20.10;42.99;101262.53;7279389;19;152116;-53
2022/03/09 04:07:13;;;;;;;;;;;;;;;20.07;43.13;101272.38;7279945;19;153558;-52
2022/03/09 04:09:40;;;;;;;;;;;;;;;20.04;43.25;101274.94;7275416;19;153637;-53
2022/03/09 04:12:07;;;;;;;;;;;;;;;20.03;43.25;101274.13;7279458;19;152019;-53
2022/03/09 04:14:34;;;;;;;;;;;;;;;20.03;43.18;101281.69;7278511;19;153474;-52
2022/03/09 04:17:02;;;;;;;;;;;;;;;20.02;43.53;101282.81;7279647;19;153980;-53
2022/03/09 04:19:29;;;;;;;;;;;;;;;19.98;43.55;101286.22;7279411;19;152375;-53
2022/03/09 04:21:56;;;;;;;;;;;;;;;20.00;43.55;101288.72;7276875;19;153666;-54
2022/03/09 04:24:22;;;;;;;;;;;;;;;19.96;43.37;101294.09;7285866;19;153206;-53
2022/03/09 04:26:49;;;;;;;;;;;;;;;19.97;43.57;101289.31;7279052;19;152890;-53
2022/03/09 04:29:16;;;;;;;;;;;;;;;19.93;43.66;101286.28;7280352;19;153368;-53
2022/03/09 04:31:45;;;;;;;;;;;;;;;19.93;43.42;101283.47;7280886;19;152046;-53
2022/03/09 04:34:12;;;;;;;;;;;;;;;19.93;43.70;101289.09;7279278;19;152788;-53
2022/03/09 04:36:39;;;;;;;;;;;;;;;19.90;43.67;101289.66;7276947;19;154151;-53
2022/03/09 04:39:08;;;;;;;;;;;;;;;19.89;43.58;101282.41;7280408;19;151796;-53
2022/03/09 04:41:34;;;;;;;;;;;;;;;19.88;43.42;101283.53;7275572;19;153313;-52
2022/03/09 04:44:01;;;;;;;;;;;;;;;19.88;43.64;101283.53;7277567;19;153251;-53
2022/03/09 04:46:28;;;;;;;;;;;;;;;19.85;43.78;101269.25;7286418;19;151863;-53
2022/03/09 04:48:55;;;;;;;;;;;;;;;19.85;43.87;101272.88;7276797;19;153906;-52
2022/03/09 04:51:22;;;;;;;;;;;;;;;19.84;43.52;101274.03;7281126;19;151963;-52
2022/03/09 04:53:49;;;;;;;;;;;;;;;19.87;43.87;101281.84;7277960;19;152173;-53
2022/03/09 04:56:16;;;;;;;;;;;;;;;19.85;43.68;101281.28;7278723;19;153868;-52
2022/03/09 04:58:43;;;;;;;;;;;;;;;19.81;43.50;101283.00;7279904;19;152187;-53
2022/03/09 05:01:09;;;;;;;;;;;;;;;19.79;43.96;101290.91;7276751;19;152157;-52
2022/03/09 05:03:37;;;;;;;;;;;;;;;19.77;43.97;101295.97;7276786;19;153397;-52
2022/03/09 05:06:04;;;;;;;;;;;;;;;19.76;43.57;101291.47;7287859;19;151984;-53
2022/03/09 05:08:33;;;;;;;;;;;;;;;19.74;44.04;101288.16;7275185;19;154642;-53
2022/03/09 05:11:00;;;;;;;;;;;;;;;19.72;44.02;101292.34;7280201;19;152318;-53
2022/03/09 05:13:27;;;;;;;;;;;;;;;19.72;44.06;101286.75;7280033;19;153340;-53
2022/03/09 05:15:54;;;;;;;;;;;;;;;19.70;43.82;101292.66;7277425;19;153109;-53
2022/03/09 05:18:21;;;;;;;;;;;;;;;19.69;43.67;101285.38;7279477;19;152032;-53
2022/03/09 05:20:48;;;;;;;;;;;;;;;19.68;44.02;101288.47;7275154;19;153128;-53
2022/03/09 05:23:15;;;;;;;;;;;;;;;19.69;43.97;101295.75;7276065;19;153577;-52
2022/03/09 05:25:41;;;;;;;;;;;;;;;19.72;43.55;101297.97;7279115;19;151888;-52
2022/03/09 05:28:08;;;;;;;;;;;;;;;19.73;44.09;101303.28;7285895;19;153036;-53
2022/03/09 05:30:36;;;;;;;;;;;;;;;19.79;44.13;101301.28;7279014;19;151932;-53
2022/03/09 05:33:03;;;;;;;;;;;;;;;19.82;43.78;101309.94;7275570;19;152766;-52
2022/03/09 05:35:30;;;;;;;;;;;;;;;19.88;44.04;101310.72;7277464;19;154101;-53
2022/03/09 05:37:57;;;;;;;;;;;;;;;19.92;44.23;101315.44;7276774;19;152081;-56
2022/03/09 05:40:24;;;;;;;;;;;;;;;19.97;44.01;101311.75;7278399;19;153277;-53
2022/03/09 05:42:50;;;;;;;;;;;;;;;20.02;44.47;101310.88;7274748;19;154093;-53
2022/03/09 05:45:18;;;;;;;;;;;;;;;20.08;44.40;101306.88;7279200;19;151790;-53
2022/03/09 05:47:48;;;;;;;;;;;;;;;20.13;44.55;101318.03;7276077;19;152595;-52
2022/03/09 05:50:15;;;;;;;;;;;;;;;20.20;44.55;101329.75;7282614;19;153229;-53
2022/03/09 05:52:43;;;;;;;;;;;;;;;20.25;44.40;101327.72;7279030;19;153913;-53
2022/03/09 05:55:09;;;;;;;;;;;;;;;20.31;44.69;101325.72;7277326;19;153780;-54
2022/03/09 05:57:36;;;;;;;;;;;;;;;20.37;44.30;101332.94;7276339;19;151781;-53
2022/03/09 06:00:06;;;;;;;;;;;;;;;20.43;44.18;101340.19;7278606;19;152671;-52
2022/03/09 06:02:33;;;;;;;;;;;;;;;20.50;44.39;101340.66;7273408;19;153273;-53
2022/03/09 06:05:00;;;;;;;;;;;;;;;20.55;44.57;101349.03;7278432;19;151978;-53
2022/03/09 06:07:27;;;;;;;;;;;;;;;20.62;44.32;101357.94;7275722;19;153066;-54
2022/03/09 06:09:54;;;;;;;;;;;;;;;20.66;44.04;101350.59;7274162;19;154074;-52
2022/03/09 06:12:21;;;;;;;;;;;;;;;20.72;43.54;101365.38;7284754;19;151717;-53
2022/03/09 06:14:49;;;;;;;;;;;;;;;20.77;43.69;101368.13;7277224;19;153355;-53
2022/03/09 06:17:16;;;;;;;;;;;;;;;20.82;43.58;101360.47;7276769;19;151729;-53
2022/03/09 06:19:42;;;;;;;;;;;;;;;20.88;43.55;101361.25;7278181;19;153170;-52
2022/03/09 06:22:09;;;;;;;;;;;;;;;20.92;43.65;101365.13;7272203;19;154543;-53
2022/03/09 06:24:36;;;;;;;;;;;;;;;20.99;43.24;101370.34;7277548;19;151943;-53
2022/03/09 06:27:04;;;;;;;;;;;;;;;21.04;43.71;101370.28;7277114;19;153405;-52
2022/03/09 06:29:31;;;;;;;;;;;;;;;21.09;43.67;101370.22;7274418;19;153982;-53
2022/03/09 06:31:57;;;;;;;;;;;;;;;21.14;43.06;101378.63;7276692;19;151990;-53
2022/03/09 06:34:24;;;;;;;;;;;;;;;21.18;42.99;101371.25;7284602;19;153450;-52
2022/03/09 06:36:51;;;;;;;;;;;;;;;21.22;43.36;101370.34;7282341;19;151764;-52
2022/03/09 06:39:18;;;;;;;;;;;;;;;21.27;43.32;101373.09;7282041;19;152988;-53
2022/03/09 06:41:45;;;;;;;;;;;;;;;21.33;43.17;101381.44;7281445;19;153796;-53
2022/03/09 06:44:13;;;;;;;;;;;;;;;21.39;42.61;101383.91;7283765;19;151808;-53
2022/03/09 06:46:41;;;;;;;;;;;;;;;21.44;42.59;101385.81;7283832;19;152765;-53
2022/03/09 06:49:07;;;;;;;;;;;;;;;21.48;42.51;101384.88;7283142;19;153911;-53
2022/03/09 06:51:34;;;;;;;;;;;;;;;21.52;42.21;101391.56;7282803;19;151677;-53
2022/03/09 06:54:01;;;;;;;;;;;;;;;21.56;42.61;101398.25;7282883;19;153732;-53
2022/03/09 06:56:28;;;;;;;;;;;;;;;21.60;42.00;101396.50;7287444;19;152014;-54
2022/03/09 06:58:55;;;;;;;;;;;;;;;21.65;42.18;101399.22;7280308;19;152615;-53
2022/03/09 07:01:23;;;;;;;;;;;;;;;21.68;42.35;101395.81;7281530;19;153772;-53
2022/03/09 07:03:52;;;;;;;;;;;;;;;21.72;42.12;101396.03;7282239;19;152055;-53
2022/03/09 07:06:20;;;;;;;;;;;;;;;21.77;41.75;101395.09;7283035;19;152700;-53
2022/03/09 07:08:51;;;;;;;;;;;;;;;21.81;42.19;101402.63;7279911;19;153377;-52
2022/03/09 07:11:18;;;;;;;;;;;;;;;21.85;42.05;101397.25;7283507;19;151493;-53
2022/03/09 07:13:45;;;;;;;;;;;;;;;21.89;41.77;101403.94;7282741;19;153297;-52
2022/03/09 07:16:12;;;;;;;;;;;;;;;21.94;41.99;101415.13;7287682;19;152507;-53
2022/03/09 07:18:39;;;;;;;;;;;;;;;22.00;41.45;101408.25;7279120;19;152004;-53
2022/03/09 07:21:06;;;;;;;;;;;;;;;22.03;41.30;101413.28;7281601;19;154524;-53
2022/03/09 07:23:33;;;;;;;;;;;;;;;21.74;39.39;101411.47;7280013;19;152438;-53
2022/03/09 07:26:00;;;;;;;;;;;;;;;21.93;39.80;101411.47;7281456;19;154716;-53
2022/03/09 07:28:28;;;;;;;;;;;;;;;22.00;40.35;101413.88;7282245;19;153650;-52
2022/03/09 07:30:55;;;;;;;;;;;;;;;22.04;39.97;101417.75;7280459;19;152228;-54
2022/03/09 07:33:22;;;;;;;;;;;;;;;22.08;40.08;101411.19;7283129;19;152763;-53
2022/03/09 07:35:49;;;;;;;;;;;;;;;22.11;39.93;101410.59;7279935;19;153718;-54
2022/03/09 07:38:16;;;;;;;;;;;;;;;22.09;39.35;101412.03;7287255;19;151796;-54
2022/03/09 07:40:43;;;;;;;;;;;;;;;22.05;39.52;101411.00;7279448;19;153919;-54
2022/03/09 07:43:10;;;;;;;;;;;;;;;22.12;39.98;101417.88;7278536;19;151769;-54
2022/03/09 07:46:00;;;;;;;;;;;;;;;22.02;38.91;101415.25;7280736;19;152741;-54
2022/03/09 07:48:35;;;;;;;;;;;;;;;22.02;39.11;101406.81;7279390;19;153964;-54
2022/03/09 07:51:01;;;;;;;;;;;;;;;22.03;38.84;101407.66;7280658;19;151770;-54
2022/03/09 07:53:28;;;;;;;;;;;;;;;22.01;38.90;101409.94;7282449;19;152572;-54
2022/03/09 07:55:55;;;;;;;;;;;;;;;22.02;38.48;101414.44;7280027;19;153772;-55
2022/03/09 07:58:22;;;;;;;;;;;;;;;21.98;38.55;101408.59;7282078;19;152254;-55
2022/03/09 08:00:49;;;;;;;;;;;;;;;21.98;38.48;101405.78;7288858;19;152658;-54
2022/03/09 08:03:16;;;;;;;;;;;;;;;21.98;38.48;101413.38;7277300;19;152123;-54
2022/03/09 08:05:55;;;;;;;;;;;;;;;21.96;38.67;101407.19;7282599;19;153235;-54
2022/03/09 08:08:27;;;;;;;;;;;;;;;21.94;38.77;101406.69;7280473;19;153462;-55
2022/03/09 08:10:54;;;;;;;;;;;;;;;21.92;38.70;101408.94;7279065;19;151918;-54
2022/03/09 08:13:21;;;;;;;;;;;;;;;21.90;38.62;101408.38;7281990;19;153171;-54
2022/03/09 08:15:48;;;;;;;;;;;;;;;21.88;38.19;101405.06;7279982;19;153774;-54
2022/03/09 08:18:17;;;;;;;;;;;;;;;21.86;38.50;101405.34;7281953;19;151544;-54
2022/03/09 08:20:45;;;;;;;;;;;;;;;21.89;38.21;101406.75;7280912;19;151910;-54
2022/03/09 08:23:12;;;;;;;;;;;;;;;21.88;38.11;101403.09;7282816;19;153327;-54
2022/03/09 08:25:40;;;;;;;;;;;;;;;21.80;38.34;101408.56;7280755;19;152803;-54
2022/03/09 08:28:07;;;;;;;;;;;;;;;21.78;38.59;101399.59;7278586;19;154164;-54
2022/03/09 08:30:34;;;;;;;;;;;;;;;21.77;38.15;101410.00;7283357;19;151772;-55
2022/03/09 08:33:01;;;;;;;;;;;;;;;21.72;38.16;101408.09;7282378;19;152821;-55
2022/03/09 08:35:30;;;;;;;;;;;;;;;21.77;38.22;101412.81;7279512;19;154491;-54
2022/03/09 08:37:57;;;;;;;;;;;;;;;21.72;38.48;101412.91;7277348;19;151988;-55
2022/03/09 08:40:30;;;;;;;;;;;;;;;21.65;38.31;101398.41;7278126;19;153105;-54
2022/03/09 08:43:26;;;;;;;;;;;;;;;21.62;38.66;101404.63;7275384;19;152574;-54
2022/03/09 08:45:53;;;;;;;;;;;;;;;21.56;38.55;101403.88;7286020;19;151654;-54
2022/03/09 08:48:20;;;;;;;;;;;;;;;21.53;38.57;101410.09;7279295;19;153667;-54
2022/03/09 08:50:47;;;;;;;;;;;;;;;21.53;38.01;101412.09;7279566;19;151567;-54
2022/03/09 08:53:15;;;;;;;;;;;;;;;21.48;38.50;101413.00;7280045;19;151893;-54
2022/03/09 08:55:43;;;;;;;;;;;;;;;21.45;38.57;101413.59;7277474;19;154233;-54
2022/03/09 08:58:09;;;;;;;;;;;;;;;21.42;38.56;101419.81;7279190;19;151529;-54
2022/03/09 09:00:36;;;;;;;;;;;;;;;21.38;38.42;101409.50;7280467;19;153034;-54
2022/03/09 09:03:09;;;;;;;;;;;;;;;21.36;38.57;101415.41;7276348;19;153681;-54
2022/03/09 09:05:36;;;;;;;;;;;;;;;21.32;38.16;101416.31;7287205;19;151466;-54
2022/03/09 09:08:03;;;;;;;;;;;;;;;21.28;38.61;101416.94;7278378;19;153940;-54
2022/03/09 09:10:33;;;;;;;;;;;;;;;21.26;38.17;101413.56;7275861;19;151888;-54
2022/03/09 09:13:00;;;;;;;;;;;;;;;21.23;38.44;101408.56;7280328;19;153509;-54
2022/03/09 09:15:28;;;;;;;;;;;;;;;21.21;38.15;101416.44;7278706;19;153390;-54
2022/03/09 09:17:56;;;;;;;;;;;;;;;21.16;38.52;101413.72;7279160;19;151482;-54
2022/03/09 09:20:42;;;;;;;;;;;;;;;21.15;38.37;101414.88;7279609;19;155260;-54
2022/03/09 09:23:09;;;;;;;;;;;;;;;21.13;38.42;101419.09;7273258;19;153718;-54
2022/03/09 09:25:36;;;;;;;;;;;;;;;21.09;38.43;101418.00;7280095;19;152119;-54
2022/03/09 09:28:03;;;;;;;;;;;;;;;21.06;38.23;101419.44;7281646;19;153487;-54
2022/03/09 09:30:30;;;;;;;;;;;;;;;21.03;38.30;101417.22;7280329;19;151887;-54
2022/03/09 09:32:58;;;;;;;;;;;;;;;21.02;38.63;101421.19;7276747;19;152434;-54
2022/03/09 09:35:25;;;;;;;;;;;;;;;20.98;38.31;101428.53;7278746;19;153343;-54
2022/03/09 09:37:52;;;;;;;;;;;;;;;20.94;38.52;101427.44;7276620;19;151720;-54
2022/03/09 09:40:19;;;;;;;;;;;;;;;20.91;38.48;101425.25;7278091;19;153525;-54
2022/03/09 09:42:49;;;;;;;;;;;;;;;20.86;38.47;101417.72;7273730;19;153341;-54
2022/03/09 09:45:20;;;;;;;;;;;;;;;20.84;38.56;101430.41;7278861;19;151997;-54
2022/03/09 09:47:50;;;;;;;;;;;;;;;20.81;38.78;101417.78;7276069;19;154660;-54
2022/03/09 09:50:17;;;;;;;;;;;;;;;20.79;38.65;101411.63;7282386;19;156472;-54
2022/03/09 09:52:45;;;;;;;;;;;;;;;20.76;38.76;101417.00;7278473;19;152675;-54
2022/03/09 09:55:12;;;;;;;;;;;;;;;20.72;38.92;101421.53;7275384;19;153528;-54
2022/03/09 09:57:39;;;;;;;;;;;;;;;20.70;38.47;101415.41;7277571;19;151607;-54
2022/03/09 10:00:07;;;;;;;;;;;;;;;20.66;38.95;101417.97;7272989;19;152812;-54
2022/03/09 10:02:41;;;;;;;;;;;;;;;20.63;38.67;101426.97;7249094;19;155136;-54
2022/03/09 10:05:21;;;;;;;;;;;;;;;20.67;38.86;101421.63;7264858;19;152267;-56
2022/03/09 10:08:06;;;;;;;;;;;;;;;20.62;38.68;101422.50;7277571;19;152050;-54
2022/03/09 10:10:40;;;;;;;;;;;;;;;20.63;38.79;101415.75;7280764;19;153298;-54
2022/03/09 10:13:10;;;;;;;;;;;;;;;20.65;39.00;101421.91;7291489;19;151905;-54
2022/03/09 10:15:42;;;;;;;;;;;;;;;20.67;38.48;101419.63;7277242;19;153979;-54
2022/03/09 10:18:12;;;;;;;;;;;;;;;20.70;38.71;101419.03;7282263;19;152745;-54
2022/03/09 10:20:39;;;;;;;;;;;;;;;20.75;38.78;101418.16;7285767;19;153007;-54
2022/03/09 10:23:09;;;;;;;;;;;;;;;20.77;38.77;101415.84;7279676;19;153952;-55
2022/03/09 10:25:43;;;;;;;;;;;;;;;20.80;38.66;101423.72;7281233;19;152757;-54
2022/03/09 10:28:11;;;;;;;;;;;;;;;20.84;38.50;101417.19;7283329;19;152444;-54
2022/03/09 10:30:39;;;;;;;;;;;;;;;20.89;38.33;101419.09;7283297;19;153341;-54
2022/03/09 10:33:08;;;;;;;;;;;;;;;20.94;38.14;101412.59;7281279;19;151901;-54
2022/03/09 10:35:36;;;;;;;;;;;;;;;20.96;38.29;101402.72;7287297;19;153225;-54
2022/03/09 10:38:04;;;;;;;;;;;;;;;21.00;38.04;101406.59;7280630;19;151826;-54
2022/03/09 10:40:32;;;;;;;;;;;;;;;21.05;38.30;101406.53;7282093;19;153288;-54
2022/03/09 10:43:08;;;;;;;;;;;;;;;21.08;37.83;101410.69;7278460;19;154028;-54
2022/03/09 10:45:35;;;;;;;;;;;;;;;21.12;37.90;101406.19;7284222;19;151775;-54
2022/03/09 10:48:04;;;;;;;;;;;;;;;21.17;37.82;101408.91;7282530;19;153002;-56
2022/03/09 10:50:33;;;;;;;;;;;;;;;21.22;37.78;101404.06;7282347;19;153195;-54
2022/03/09 10:53:02;;;;;;;;;;;;;;;21.24;37.58;101400.97;7281316;19;151958;-54
2022/03/09 10:55:32;;;;;;;;;;;;;;;21.30;38.03;101399.78;7283429;19;154462;-54
2022/03/09 10:58:06;;;;;;;;;;;;;;;21.32;37.85;101397.47;7287233;19;153116;-54
2022/03/09 11:00:35;;;;;;;;;;;;;;;21.34;37.38;101403.66;7281629;19;153480;-54
2022/03/09 11:03:11;;;;;;;;;;;;;;;21.34;37.28;101409.28;7277471;19;154308;-54
2022/03/09 11:05:47;;;;;;;;;;;;;;;21.35;37.46;101407.28;7280182;19;151868;-54
2022/03/09 11:08:15;;;;;;;;;;;;;;;21.37;36.91;101405.00;7280085;19;153087;-54
2022/03/09 11:10:43;;;;;;;;;;;;;;;21.40;36.92;101407.19;7277029;19;154068;-54
2022/03/09 11:13:13;;;;;;;;;;;;;;;21.38;36.86;101401.06;7280938;19;152377;-54
2022/03/09 11:15:42;;;;;;;;;;;;;;;21.42;37.08;101404.94;7281112;19;153750;-54
2022/03/09 11:18:19;;;;;;;;;;;;;;;21.42;36.96;101402.13;7289414;19;153675;-54
2022/03/09 11:20:48;;;;;;;;;;;;;;;21.42;37.22;101407.75;7278649;19;153266;-54
2022/03/09 11:23:17;;;;;;;;;;;;;;;21.42;37.10;101413.38;7278676;19;153343;-54
2022/03/09 11:25:56;;;;;;;;;;;;;;;21.41;36.91;101406.91;7281765;19;151888;-54
2022/03/09 11:28:26;;;;;;;;;;;;;;;21.43;37.07;101407.44;7283155;19;152631;-54
2022/03/09 11:30:55;;;;;;;;;;;;;;;21.41;37.10;101401.28;7278866;19;153416;-54
2022/03/09 11:33:43;;;;;;;;;;;;;;;21.39;36.92;101403.56;7280607;19;151849;-54
2022/03/09 11:36:19;;;;;;;;;;;;;;;21.40;37.14;101398.75;7280877;19;152798;-54
2022/03/09 11:38:47;;;;;;;;;;;;;;;21.38;36.71;101404.72;7280123;19;153528;-54
2022/03/09 11:41:15;;;;;;;;;;;;;;;21.41;36.72;101409.72;7287599;19;151790;-54
2022/03/09 11:43:42;;;;;;;;;;;;;;;21.38;36.99;101396.28;7278497;19;154010;-54
2022/03/09 11:46:09;;;;;;;;;;;;;;;21.39;36.58;101399.94;7281919;19;151750;-54
2022/03/09 11:48:48;;;;;;;;;;;;;;;21.37;36.67;101388.13;7282218;19;151774;-54
2022/03/09 11:51:15;;;;;;;;;;;;;;;21.37;36.56;101402.19;7281319;19;153834;-54
2022/03/09 11:53:46;;;;;;;;;;;;;;;21.35;36.37;101390.44;7279531;19;151733;-54
2022/03/09 11:56:23;;;;;;;;;;;;;;;21.34;36.76;101383.97;7279524;19;153144;-54
2022/03/09 11:59:00;;;;;;;;;;;;;;;21.33;36.67;101389.88;7280159;19;153923;-54
2022/03/09 12:01:26;;;;;;;;;;;;;;;21.32;36.29;101385.41;7280734;19;152129;-54
2022/03/09 12:03:53;;;;;;;;;;;;;;;21.31;36.50;101376.13;7285945;19;153254;-54
2022/03/09 12:06:40;;;;;;;;;;;;;;;21.31;36.59;101370.50;7276213;19;151891;-55
2022/03/09 12:09:07;;;;;;;;;;;;;;;21.30;36.46;101372.47;7277792;19;153191;-54
2022/03/09 12:11:44;;;;;;;;;;;;;;;21.29;36.69;101379.25;7279604;19;153923;-55
2022/03/09 12:14:11;;;;;;;;;;;;;;;21.28;36.21;101371.13;7277835;19;152279;-54
2022/03/09 12:16:57;;;;;;;;;;;;;;;21.26;36.58;101376.19;7279291;19;152739;-54
2022/03/09 12:19:25;;;;;;;;;;;;;;;21.27;36.41;101361.00;7277758;19;153515;-54
2022/03/09 12:21:52;;;;;;;;;;;;;;;21.28;36.19;101368.31;7280673;19;151658;-54
2022/03/09 12:24:20;;;;;;;;;;;;;;;21.26;36.30;101362.97;7276842;19;152586;-54
2022/03/09 12:26:48;;;;;;;;;;;;;;;21.23;36.30;101368.38;7285860;19;153879;-54
2022/03/09 12:29:22;;;;;;;;;;;;;;;21.23;36.46;101366.41;7278826;19;152955;-54
2022/03/09 12:31:58;;;;;;;;;;;;;;;21.18;36.45;101368.44;7277718;19;154063;-54
2022/03/09 12:34:26;;;;;;;;;;;;;;;21.15;36.50;101369.06;7278030;19;152014;-54
2022/03/09 12:36:53;;;;;;;;;;;;;;;21.15;36.49;101364.28;7280976;19;152907;-53